Time;durP1;ratioP1;P1;durP2;ratioP2;P2;SDS_P1;SDS_P2;PMS_P1;PMS_P2;Temp;Humidity;BMP_temperature;BMP_pressure;BME280_temperature;BME280_humidity;BME280_pressure;Samples;Min_cycle;Max_cycle;Signal;HPM_P1;HPM_P2
2023/04/18 00:03:37;;;;;;;4.35;3.33;;;;;;;19.12;33.66;102464.66;16122116;19;130565;-40
2023/04/18 00:08:59;;;;;;;4.75;3.20;;;;;;;19.10;33.97;102461.25;16121926;19;134060;-39
2023/04/18 00:14:22;;;;;;;4.68;3.08;;;;;;;19.07;33.58;102456.97;16115724;19;130448;-39
2023/04/18 00:19:44;;;;;;;4.05;3.40;;;;;;;19.05;33.96;102451.66;16123130;19;129757;-40
2023/04/18 00:25:06;;;;;;;5.43;3.83;;;;;;;19.04;34.01;102449.94;16125583;19;129830;-39
2023/04/18 00:30:28;;;;;;;4.50;3.40;;;;;;;19.01;33.99;102453.13;16121178;19;130368;-39
2023/04/18 00:35:50;;;;;;;5.72;3.28;;;;;;;19.01;33.65;102452.28;16120207;19;129217;-39
2023/04/18 00:41:12;;;;;;;3.47;2.90;;;;;;;18.98;34.09;102448.00;16115433;19;130346;-39
2023/04/18 00:46:33;;;;;;;4.65;3.15;;;;;;;18.98;33.81;102439.69;16119378;19;130887;-39
2023/04/18 00:51:56;;;;;;;4.97;3.10;;;;;;;18.95;34.05;102437.34;16112158;19;132019;-39
2023/04/18 00:57:17;;;;;;;5.25;3.33;;;;;;;18.91;34.08;102433.28;16120127;19;129533;-40
2023/04/18 01:02:40;;;;;;;5.38;3.78;;;;;;;18.90;33.78;102429.63;16118083;19;130240;-40
2023/04/18 01:08:02;;;;;;;4.60;3.03;;;;;;;18.89;34.13;102433.47;16119250;19;131204;-39
2023/04/18 01:13:23;;;;;;;4.47;3.15;;;;;;;18.87;33.77;102432.00;16118613;19;132093;-39
2023/04/18 01:18:45;;;;;;;3.47;2.97;;;;;;;18.85;33.87;102423.91;16113396;19;131090;-39
2023/04/18 01:24:15;;;;;;;4.55;3.47;;;;;;;18.84;33.64;102418.53;16118187;19;129462;-39
2023/04/18 01:29:37;;;;;;;3.53;3.13;;;;;;;18.82;33.91;102412.38;16118649;19;129757;-41
2023/04/18 01:34:59;;;;;;;3.53;2.97;;;;;;;18.79;34.03;102402.53;16118696;19;129425;-39
2023/04/18 01:40:22;;;;;;;4.13;3.10;;;;;;;18.79;33.90;102404.47;16114551;19;131319;-39
2023/04/18 01:45:44;;;;;;;3.42;3.13;;;;;;;18.76;33.67;102401.06;16115386;19;130537;-40
2023/04/18 01:51:05;;;;;;;3.95;3.13;;;;;;;18.75;33.56;102398.50;16112278;19;132063;-39
2023/04/18 01:56:27;;;;;;;3.78;2.97;;;;;;;18.73;33.87;102404.25;16114238;19;129705;-38
2023/04/18 02:01:50;;;;;;;4.95;2.67;;;;;;;18.71;33.88;102398.06;16115160;19;130368;-39
2023/04/18 02:07:12;;;;;;;3.13;2.83;;;;;;;18.69;33.92;102400.22;16114960;19;130035;-42
2023/04/18 02:12:33;;;;;;;3.65;2.72;;;;;;;18.69;33.92;102400.22;16115531;19;131852;-39
2023/04/18 02:17:55;;;;;;;3.40;2.80;;;;;;;18.66;33.75;102389.53;16113567;19;130481;-39
2023/04/18 02:23:18;;;;;;;5.18;3.35;;;;;;;18.65;33.59;102396.13;16110926;19;129827;-40
2023/04/18 02:28:40;;;;;;;4.35;3.03;;;;;;;18.65;33.84;102400.81;16111928;19;134624;-39
2023/04/18 02:34:01;;;;;;;2.97;2.70;;;;;;;18.63;33.84;102386.34;16111740;19;130872;-39
2023/04/18 02:39:23;;;;;;;3.65;3.22;;;;;;;18.60;33.40;102384.81;16117779;19;130428;-41
2023/04/18 02:44:45;;;;;;;4.32;3.08;;;;;;;18.58;33.66;102387.81;16106854;19;130823;-42
2023/04/18 02:50:08;;;;;;;3.47;2.58;;;;;;;18.57;33.38;102385.25;16113302;19;129560;-39
2023/04/18 02:55:30;;;;;;;4.47;3.08;;;;;;;18.56;33.86;102387.16;16110651;19;131752;-39
2023/04/18 03:00:53;;;;;;;3.35;2.30;;;;;;;18.54;33.64;102392.06;16107435;19;129818;-39
2023/04/18 03:06:16;;;;;;;3.13;2.70;;;;;;;18.53;33.73;102395.88;16118083;19;131083;-39
2023/04/18 03:11:37;;;;;;;7.35;2.42;;;;;;;18.52;33.51;102390.56;16123489;19;129631;-39
2023/04/18 03:16:59;;;;;;;4.03;2.80;;;;;;;18.50;33.67;102389.91;16125837;19;133833;-39
2023/04/18 03:22:21;;;;;;;3.45;2.65;;;;;;;18.48;33.77;102386.50;16126643;19;130127;-39
2023/04/18 03:27:43;;;;;;;3.08;2.30;;;;;;;18.48;33.19;102386.50;16125751;19;130292;-41
2023/04/18 03:33:05;;;;;;;4.85;2.30;;;;;;;18.45;33.19;102385.88;16123159;19;129453;-39
2023/04/18 03:38:27;;;;;;;4.38;2.75;;;;;;;18.43;33.62;102393.53;16126764;19;129922;-39
2023/04/18 03:43:49;;;;;;;2.95;2.45;;;;;;;18.43;33.16;102398.22;16121368;19;129705;-39
2023/04/18 03:49:11;;;;;;;3.38;2.70;;;;;;;18.40;33.47;102395.88;16124755;19;130881;-41
2023/04/18 03:54:32;;;;;;;3.42;2.47;;;;;;;18.39;33.13;102392.25;16121806;19;130734;-39
2023/04/18 03:59:54;;;;;;;4.40;2.67;;;;;;;18.36;33.22;102392.63;16120333;19;130110;-39
2023/04/18 04:05:16;;;;;;;3.80;2.60;;;;;;;18.35;33.49;102399.22;16122417;19;130842;-40
2023/04/18 04:10:38;;;;;;;5.93;2.85;;;;;;;18.32;32.96;102394.13;16120794;19;129566;-40
2023/04/18 04:16:00;;;;;;;3.33;2.33;;;;;;;18.33;33.05;102403.28;16116507;19;129423;-41
2023/04/18 04:21:22;;;;;;;2.45;2.05;;;;;;;18.30;32.97;102397.06;16121318;19;129856;-39
2023/04/18 04:26:45;;;;;;;4.13;2.78;;;;;;;18.31;32.92;102404.34;16119695;19;131165;-41
2023/04/18 04:32:07;;;;;;;3.97;2.53;;;;;;;18.28;33.36;102392.81;16120227;19;130686;-39
2023/04/18 04:37:29;;;;;;;4.57;2.15;;;;;;;18.28;33.02;102398.34;16119907;19;129803;-39
2023/04/18 04:42:52;;;;;;;4.05;2.30;;;;;;;18.27;33.01;102402.19;16117149;19;130057;-39
2023/04/18 04:48:14;;;;;;;3.67;2.80;;;;;;;18.23;32.82;102401.75;16118564;19;131022;-39
2023/04/18 04:53:37;;;;;;;3.58;2.03;;;;;;;18.22;33.01;102411.13;16120615;19;130661;-40
2023/04/18 04:58:59;;;;;;;2.53;2.05;;;;;;;18.22;33.29;102399.16;16116159;19;130480;-39
2023/04/18 05:04:21;;;;;;;3.17;2.15;;;;;;;18.21;33.27;102408.56;16116433;19;130746;-40
2023/04/18 05:09:43;;;;;;;2.80;2.05;;;;;;;18.31;33.05;102409.88;16118219;19;130720;-39
2023/04/18 05:15:05;;;;;;;2.15;1.80;;;;;;;18.68;32.26;102412.34;16117006;19;131069;-40
2023/04/18 05:20:27;;;;;;;6.07;2.00;;;;;;;18.96;32.49;102419.63;16111635;19;130139;-39
2023/04/18 05:25:49;;;;;;;10.57;2.47;;;;;;;19.17;32.36;102423.28;16116919;19;131056;-41
2023/04/18 05:31:11;;;;;;;6.05;2.05;;;;;;;19.32;31.80;102423.91;16115643;19;130691;-47
2023/04/18 05:36:33;;;;;;;5.22;2.20;;;;;;;19.40;32.12;102424.78;16116019;19;129116;-50
2023/04/18 05:41:55;;;;;;;6.53;2.60;;;;;;;19.43;32.02;102432.69;16116176;19;129434;-49
2023/04/18 05:47:17;;;;;;;10.27;2.35;;;;;;;19.44;31.77;102434.41;16117269;19;129281;-51
2023/04/18 05:52:39;;;;;;;10.77;2.40;;;;;;;19.43;31.69;102427.97;16113885;19;130087;-48
2023/04/18 05:58:01;;;;;;;5.15;2.33;;;;;;;19.41;31.90;102437.59;16114537;19;131503;-49
2023/04/18 06:03:23;;;;;;;6.72;1.95;;;;;;;19.40;31.74;102438.66;16113238;19;129618;-47
2023/04/18 06:08:45;;;;;;;4.35;2.15;;;;;;;19.37;31.60;102435.25;16096679;19;130624;-49
2023/04/18 06:14:07;;;;;;;4.40;2.25;;;;;;;19.35;31.41;102431.81;16110628;19;130095;-46
2023/04/18 06:19:29;;;;;;;7.28;2.55;;;;;;;19.35;31.62;102440.16;16113573;19;131626;-40
2023/04/18 06:24:51;;;;;;;4.90;2.20;;;;;;;19.32;31.66;102440.56;16115092;19;130098;-41
2023/04/18 06:30:13;;;;;;;2.70;2.33;;;;;;;19.33;31.71;102450.59;16112158;19;131879;-42
2023/04/18 06:35:35;;;;;;;4.53;2.60;;;;;;;19.31;31.52;102451.91;16112914;19;129417;-39
2023/04/18 06:40:57;;;;;;;4.25;2.05;;;;;;;19.29;31.75;102442.91;16117373;19;129683;-41
2023/04/18 06:46:19;;;;;;;5.03;2.50;;;;;;;19.29;31.32;102452.13;16131742;19;134355;-39
2023/04/18 06:51:41;;;;;;;5.07;2.60;;;;;;;19.28;31.64;102453.19;16128717;19;130575;-40
2023/04/18 06:57:03;;;;;;;6.82;2.50;;;;;;;19.31;31.26;102443.56;16129629;19;130652;-41
2023/04/18 07:02:25;;;;;;;5.13;2.53;;;;;;;19.42;31.00;102436.53;16127860;19;134730;-41
2023/04/18 07:07:47;;;;;;;4.03;2.75;;;;;;;19.57;30.64;102447.38;16124765;19;130653;-40
2023/04/18 07:13:09;;;;;;;5.03;2.30;;;;;;;19.73;30.68;102455.28;16128133;19;131111;-40
2023/04/18 07:18:31;;;;;;;6.05;2.55;;;;;;;19.86;30.27;102459.94;16127945;19;129804;-39
2023/04/18 07:23:59;;;;;;;2.53;2.10;;;;;;;19.98;30.35;102452.63;16129444;19;130676;-40
2023/04/18 07:29:20;;;;;;;3.22;2.40;;;;;;;20.11;30.28;102445.34;16126755;19;130667;-42
2023/04/18 07:34:43;;;;;;;5.55;2.60;;;;;;;20.19;29.59;102453.44;16124313;19;130347;-42
2023/04/18 07:40:06;;;;;;;4.53;2.75;;;;;;;20.24;29.92;102450.88;16125558;19;130782;-40
2023/04/18 07:45:28;;;;;;;3.95;2.40;;;;;;;20.24;29.76;102453.66;16122919;19;130440;-41
2023/04/18 07:50:50;;;;;;;2.80;2.10;;;;;;;20.20;30.00;102457.94;16125860;19;129441;-40
2023/04/18 07:56:13;;;;;;;3.35;2.38;;;;;;;20.16;29.58;102465.00;16124232;19;129625;-41
2023/04/18 08:01:35;;;;;;;7.70;2.50;;;;;;;20.12;29.84;102458.19;16122334;19;129377;-42
2023/04/18 08:06:56;;;;;;;7.30;2.85;;;;;;;20.07;29.71;102452.41;16124480;19;128908;-41
2023/04/18 08:12:18;;;;;;;10.40;3.08;;;;;;;20.11;29.84;102459.25;16125161;19;129448;-39
2023/04/18 08:17:42;;;;;;;9.35;3.10;;;;;;;20.21;29.86;102461.56;16124684;19;129329;-41
2023/04/18 08:23:06;;;;;;;6.30;3.43;;;;;;;20.34;29.50;102455.97;16127422;19;129958;-39
2023/04/18 08:28:32;;;;;;;5.45;2.83;;;;;;;20.46;29.49;102450.53;16125659;19;130682;-39
2023/04/18 08:33:54;;;;;;;6.18;2.50;;;;;;;20.55;29.05;102446.47;16123625;19;129193;-40
2023/04/18 08:39:16;;;;;;;3.65;2.45;;;;;;;20.68;28.76;102448.28;16122075;19;131189;-40
2023/04/18 08:44:38;;;;;;;5.57;3.03;;;;;;;20.77;29.16;102446.13;16121839;19;129287;-40
2023/04/18 08:50:00;;;;;;;6.47;3.05;;;;;;;20.82;29.02;102449.06;16123377;19;131256;-40
2023/04/18 08:55:22;;;;;;;6.07;2.63;;;;;;;20.89;28.54;102447.13;16118807;19;129332;-41
2023/04/18 09:00:49;;;;;;;5.35;3.45;;;;;;;20.90;28.43;102450.75;16121380;19;129773;-40
2023/04/18 09:06:17;;;;;;;5.50;3.50;;;;;;;20.83;28.47;102450.78;16115447;19;129196;-41
2023/04/18 09:11:41;;;;;;;4.65;3.22;;;;;;;20.75;28.82;102445.47;16121785;19;133014;-42
2023/04/18 09:17:04;;;;;;;5.22;3.28;;;;;;;20.71;28.89;102453.41;16118308;19;129698;-41
2023/04/18 09:22:44;;;;;;;5.75;3.63;;;;;;;20.67;28.78;102454.94;16120195;19;130911;-41
2023/04/18 09:28:32;;;;;;;4.72;3.50;;;;;;;20.61;28.37;102444.72;16119819;19;129493;-41
2023/04/18 09:33:55;;;;;;;5.57;3.65;;;;;;;20.57;28.72;102447.06;16115018;19;129659;-42
2023/04/18 09:39:27;;;;;;;5.68;3.53;;;;;;;20.75;28.24;102457.47;16117899;19;129362;-40
2023/04/18 09:45:02;;;;;;;8.75;3.55;;;;;;;20.90;28.15;102437.69;16115331;19;129769;-39
2023/04/18 09:50:24;;;;;;;5.75;2.97;;;;;;;21.05;28.15;102444.84;16113694;19;129705;-40
2023/04/18 09:55:52;;;;;;;2.97;2.50;;;;;;;21.22;27.81;102443.22;16117763;19;129427;-39
2023/04/18 10:01:18;;;;;;;6.18;3.10;;;;;;;21.35;27.93;102439.44;16116113;19;129759;-41
2023/04/18 10:06:41;;;;;;;7.28;2.90;;;;;;;21.51;27.66;102452.00;16117895;19;134415;-40
2023/04/18 10:12:04;;;;;;;4.97;2.90;;;;;;;21.80;27.48;102446.75;16117630;19;129534;-43
2023/04/18 10:17:27;;;;;;;5.53;2.22;;;;;;;22.05;27.13;102448.59;16112470;19;129504;-42
2023/04/18 10:22:51;;;;;;;6.97;2.17;;;;;;;22.25;27.39;102450.34;16112311;19;130376;-41
2023/04/18 10:28:13;;;;;;;5.88;2.00;;;;;;;22.39;27.05;102449.09;16114796;19;129806;-40
2023/04/18 10:33:38;;;;;;;4.93;2.00;;;;;;;22.37;27.07;102444.81;16114625;19;129301;-42
2023/04/18 10:39:21;;;;;;;5.40;2.20;;;;;;;22.25;27.40;102458.72;16115979;19;130456;-43
2023/04/18 10:45:18;;;;;;;4.13;2.17;;;;;;;22.10;27.90;102445.13;16114660;19;129810;-41
2023/04/18 10:51:11;;;;;;;4.93;2.42;;;;;;;21.93;28.16;102444.91;16116117;19;130081;-40
2023/04/18 10:56:33;;;;;;;2.90;2.13;;;;;;;21.71;27.96;102441.72;16113073;19;129870;-40
2023/04/18 11:02:01;;;;;;;2.92;2.00;;;;;;;21.55;28.27;102440.38;16112616;19;130782;-43
2023/04/18 11:07:37;;;;;;;4.28;2.20;;;;;;;21.42;28.35;102441.34;16115368;19;130586;-40
2023/04/18 11:13:03;;;;;;;2.53;2.03;;;;;;;21.28;28.67;102429.47;16109014;19;129736;-39
2023/04/18 11:18:25;;;;;;;4.05;2.10;;;;;;;21.13;28.55;102430.66;16112509;19;130778;-40
2023/04/18 11:23:47;;;;;;;3.53;2.22;;;;;;;21.02;28.63;102428.63;16113195;19;130089;-41
2023/04/18 11:29:09;;;;;;;5.35;2.40;;;;;;;20.90;28.87;102421.00;16126430;19;129145;-41
2023/04/18 11:34:31;;;;;;;4.18;2.45;;;;;;;20.81;29.07;102419.56;16128972;19;129433;-39
2023/04/18 11:39:53;;;;;;;8.93;2.53;;;;;;;20.74;29.19;102429.84;16128452;19;129336;-42
2023/04/18 11:45:15;;;;;;;2.30;2.10;;;;;;;20.67;29.40;102424.34;16129119;19;130114;-40
2023/04/18 11:50:37;;;;;;;2.47;2.03;;;;;;;20.58;29.36;102423.75;16129889;19;129507;-39
2023/04/18 11:55:59;;;;;;;2.00;1.90;;;;;;;20.54;29.42;102427.19;16125797;19;129711;-41
2023/04/18 12:01:23;;;;;;;2.20;2.00;;;;;;;20.48;29.34;102415.03;16124619;19;130439;-39
2023/04/18 12:06:50;;;;;;;2.13;1.67;;;;;;;20.44;29.74;102425.75;16125004;19;129638;-43
2023/04/18 12:12:18;;;;;;;2.15;1.92;;;;;;;20.41;29.56;102419.81;16123897;19;129801;-39
2023/04/18 12:17:43;;;;;;;1.60;1.48;;;;;;;20.36;29.30;102414.03;16126822;19;134960;-39
2023/04/18 12:23:05;;;;;;;1.60;1.50;;;;;;;20.33;29.59;102415.34;16128307;19;131923;-39
2023/04/18 12:28:27;;;;;;;1.85;1.73;;;;;;;20.28;29.96;102424.34;16123484;19;130009;-40
2023/04/18 12:33:49;;;;;;;2.20;1.63;;;;;;;20.22;29.86;102425.22;16123154;19;130645;-43
2023/04/18 12:39:12;;;;;;;2.03;1.70;;;;;;;20.19;29.88;102416.47;16123664;19;129465;-40
2023/04/18 12:44:33;;;;;;;2.30;1.60;;;;;;;20.17;29.64;102415.84;16121446;19;129709;-40
2023/04/18 12:49:55;;;;;;;2.50;1.70;;;;;;;20.09;29.90;102422.50;16123006;19;129321;-42
2023/04/18 12:55:18;;;;;;;2.33;1.77;;;;;;;20.05;29.78;102415.69;16119656;19;129920;-40
2023/04/18 13:00:40;;;;;;;3.65;1.98;;;;;;;20.00;30.21;102405.22;16122575;19;136066;-42
2023/04/18 13:06:03;;;;;;;3.00;1.88;;;;;;;19.94;30.08;102409.69;16123218;19;129419;-41
2023/04/18 13:11:27;;;;;;;2.67;2.15;;;;;;;19.90;29.90;102400.13;16119842;19;129978;-39
2023/04/18 13:16:49;;;;;;;2.33;1.88;;;;;;;19.87;29.87;102406.09;16123627;19;130458;-41
2023/04/18 13:22:11;;;;;;;2.45;2.25;;;;;;;19.84;29.94;102398.19;16121608;19;130250;-40
2023/04/18 13:27:33;;;;;;;2.10;1.90;;;;;;;19.82;29.99;102392.00;16119568;19;132059;-40
2023/04/18 13:32:55;;;;;;;2.15;1.90;;;;;;;19.79;30.04;102398.00;16120105;19;129434;-41
2023/04/18 13:38:17;;;;;;;2.80;2.10;;;;;;;19.76;30.23;102392.88;16121522;19;129909;-40
2023/04/18 13:43:39;;;;;;;2.47;1.90;;;;;;;19.74;30.25;102392.25;16117963;19;129852;-41
2023/04/18 13:49:00;;;;;;;2.13;1.95;;;;;;;19.73;30.60;102396.09;16117971;19;133566;-41
2023/04/18 13:54:25;;;;;;;2.17;1.90;;;;;;;19.71;30.34;102389.91;16119200;19;130933;-40
2023/04/18 13:59:47;;;;;;;3.70;2.17;;;;;;;19.69;30.24;102382.63;16115523;19;130866;-40
2023/04/18 14:05:09;;;;;;;2.28;2.08;;;;;;;19.66;30.53;102385.88;16113971;19;130038;-43
2023/04/18 14:10:31;;;;;;;3.03;2.40;;;;;;;19.64;30.49;102384.38;16117286;19;129459;-42
2023/04/18 14:15:53;;;;;;;4.20;2.67;;;;;;;19.58;30.65;102377.75;16117471;19;129280;-40
2023/04/18 14:21:15;;;;;;;3.05;2.75;;;;;;;19.58;30.65;102377.75;16117607;19;129363;-41
2023/04/18 14:26:37;;;;;;;2.67;2.47;;;;;;;19.56;30.61;102382.72;16115534;19;129944;-40
2023/04/18 14:31:59;;;;;;;3.83;3.00;;;;;;;19.54;30.75;102379.28;16115496;19;130660;-41
2023/04/18 14:37:21;;;;;;;3.15;2.85;;;;;;;19.50;30.51;102383.56;16114826;19;129510;-39
2023/04/18 14:42:43;;;;;;;4.43;2.83;;;;;;;19.47;30.49;102379.31;16114590;19;129406;-41
2023/04/18 14:48:05;;;;;;;3.35;2.88;;;;;;;19.47;30.88;102373.75;16116302;19;129935;-40
2023/04/18 14:53:30;;;;;;;5.77;3.10;;;;;;;19.46;30.79;102365.63;16112486;19;129578;-41
2023/04/18 14:58:52;;;;;;;4.38;2.85;;;;;;;19.44;30.60;102367.78;16114200;19;129112;-39
2023/04/18 15:04:13;;;;;;;3.53;3.03;;;;;;;19.44;31.04;102367.78;16124745;19;129591;-39
2023/04/18 15:09:37;;;;;;;3.10;2.80;;;;;;;19.43;31.08;102368.84;16125369;19;129775;-40
2023/04/18 15:14:59;;;;;;;4.45;2.90;;;;;;;19.42;30.76;102369.91;16129355;19;130197;-43
2023/04/18 15:20:21;;;;;;;4.22;2.95;;;;;;;19.41;30.95;102369.06;16128418;19;129605;-41
2023/04/18 15:25:45;;;;;;;4.40;3.25;;;;;;;19.40;31.32;102367.34;16129995;19;131542;-40
2023/04/18 15:31:08;;;;;;;4.10;3.70;;;;;;;19.38;30.94;102358.41;16127736;19;130879;-40
2023/04/18 15:36:30;;;;;;;3.45;3.13;;;;;;;19.36;31.02;102353.06;16124890;19;129381;-40
2023/04/18 15:41:55;;;;;;;3.35;3.05;;;;;;;19.36;31.51;102355.00;16125577;19;129392;-40
2023/04/18 15:47:17;;;;;;;5.57;3.70;;;;;;;19.36;31.44;102350.28;16123452;19;129689;-40
2023/04/18 15:52:40;;;;;;;4.07;3.53;;;;;;;19.35;31.40;102358.84;16125100;19;131294;-40
2023/04/18 15:58:02;;;;;;;3.90;3.40;;;;;;;19.31;31.47;102347.31;16122298;19;130590;-39
2023/04/18 16:03:24;;;;;;;5.55;4.05;;;;;;;19.30;31.42;102359.47;16123425;19;130943;-39
2023/04/18 16:08:46;;;;;;;5.90;3.90;;;;;;;19.29;31.50;102362.47;16116984;19;129916;-40
2023/04/18 16:14:08;;;;;;;7.05;3.60;;;;;;;19.28;31.71;102372.72;16119822;19;130121;-40
2023/04/18 16:19:30;;;;;;;7.22;4.03;;;;;;;19.26;31.78;102372.06;16123126;19;129828;-39
2023/04/18 16:24:54;;;;;;;3.90;3.50;;;;;;;19.26;31.85;102366.53;16125901;19;130728;-40
2023/04/18 16:30:16;;;;;;;4.57;3.58;;;;;;;19.24;31.51;102363.09;16125551;19;129507;-39
2023/04/18 16:35:39;;;;;;;4.30;3.90;;;;;;;19.24;31.57;102357.56;16120269;19;129462;-42
2023/04/18 16:41:00;;;;;;;3.95;2.95;;;;;;;19.38;31.54;102359.25;16124249;19;130463;-39
2023/04/18 16:46:23;;;;;;;3.70;3.13;;;;;;;19.76;31.62;102365.97;16120327;19;129238;-40
2023/04/18 16:51:45;;;;;;;3.78;3.13;;;;;;;20.15;31.25;102360.50;16123093;19;130304;-39
2023/04/18 16:57:07;;;;;;;3.25;2.95;;;;;;;20.38;31.02;102359.91;16118560;19;131464;-40
2023/04/18 17:02:29;;;;;;;3.28;2.90;;;;;;;20.47;30.70;102359.69;16122121;19;129131;-41
2023/04/18 17:07:51;;;;;;;6.43;3.30;;;;;;;20.47;30.44;102352.19;16111529;19;130638;-43
2023/04/18 17:13:13;;;;;;;4.03;3.47;;;;;;;20.41;30.47;102358.66;16109943;19;130240;-42
2023/04/18 17:18:35;;;;;;;3.70;3.00;;;;;;;20.34;31.16;102349.47;16116786;19;129515;-40
2023/04/18 17:24:00;;;;;;;6.22;3.17;;;;;;;20.24;31.24;102356.38;16112844;19;130701;-42
2023/04/18 17:29:22;;;;;;;6.80;3.75;;;;;;;20.17;31.23;102355.59;16109033;19;130894;-42
2023/04/18 17:34:46;;;;;;;5.85;3.10;;;;;;;20.12;31.28;102358.16;16112578;19;132460;-39
2023/04/18 17:40:09;;;;;;;5.88;2.97;;;;;;;20.08;31.36;102362.44;16107437;19;131738;-43
2023/04/18 17:45:31;;;;;;;5.85;3.45;;;;;;;20.02;31.26;102364.19;16110868;19;129483;-46
2023/04/18 17:50:53;;;;;;;4.47;3.10;;;;;;;19.98;31.43;102374.84;16111611;19;129848;-45
2023/04/18 17:56:15;;;;;;;6.05;3.28;;;;;;;19.94;31.54;102372.75;16115997;19;130019;-44
2023/04/18 18:01:37;;;;;;;7.22;3.10;;;;;;;19.90;31.63;102369.56;16109114;19;129708;-42
2023/04/18 18:06:59;;;;;;;5.22;3.40;;;;;;;19.95;31.92;102377.22;16110348;19;130762;-43
2023/04/18 18:12:23;;;;;;;3.27;2.97;;;;;;;20.02;31.58;102366.13;16111620;19;130344;-43
2023/04/18 18:17:48;;;;;;;3.67;2.60;;;;;;;20.02;31.74;102369.72;16103422;19;130625;-43
2023/04/18 18:23:10;;;;;;;7.60;2.93;;;;;;;20.04;31.94;102367.59;16115081;19;130879;-43
2023/04/18 18:28:32;;;;;;;5.78;3.00;;;;;;;20.10;32.38;102371.41;16112522;19;131200;-44
2023/04/18 18:33:54;;;;;;;3.53;2.47;;;;;;;20.11;32.07;102371.22;16112163;19;130527;-44
2023/04/18 18:39:16;;;;;;;4.25;3.13;;;;;;;20.17;32.28;102369.47;16110434;19;130028;-43
2023/04/18 18:44:38;;;;;;;8.02;2.33;;;;;;;20.19;32.48;102364.53;16107704;19;131941;-45
2023/04/18 18:50:00;;;;;;;11.02;3.33;;;;;;;20.23;32.62;102373.28;16110190;19;131754;-46
2023/04/18 18:55:22;;;;;;;4.57;2.35;;;;;;;20.24;32.36;102381.38;16112391;19;129708;-43
2023/04/18 19:00:45;;;;;;;8.85;3.03;;;;;;;20.24;32.63;102381.38;16112022;19;132330;-43
2023/04/18 19:06:07;;;;;;;6.15;3.00;;;;;;;20.23;32.91;102387.19;16109575;19;131775;-45
2023/04/18 19:11:29;;;;;;;10.02;2.53;;;;;;;20.19;32.75;102392.31;16109216;19;129514;-45
2023/04/18 19:16:51;;;;;;;8.95;2.78;;;;;;;20.16;32.80;102397.47;16106027;19;129673;-45
2023/04/18 19:22:13;;;;;;;3.97;2.60;;;;;;;20.13;32.82;102401.53;16105664;19;129886;-44
2023/04/18 19:27:35;;;;;;;4.45;2.63;;;;;;;20.11;32.83;102399.00;16095827;19;130560;-46
2023/04/18 19:32:57;;;;;;;5.25;2.20;;;;;;;20.11;33.13;102412.03;16107334;19;129776;-45
2023/04/18 19:38:19;;;;;;;14.43;3.08;;;;;;;20.11;33.10;102415.66;16107427;19;130111;-45
2023/04/18 19:43:41;;;;;;;6.45;3.15;;;;;;;20.10;33.02;102416.75;16108680;19;129593;-44
2023/04/18 19:49:03;;;;;;;11.45;2.42;;;;;;;20.10;33.15;102427.84;16114718;19;129441;-45
2023/04/18 19:54:25;;;;;;;7.35;2.58;;;;;;;20.12;32.88;102428.47;16121472;19;135861;-44
2023/04/18 19:59:46;;;;;;;5.90;2.60;;;;;;;20.14;33.19;102426.31;16120180;19;130911;-43
2023/04/18 20:05:08;;;;;;;6.30;2.60;;;;;;;20.28;33.13;102429.03;16119206;19;129424;-44
2023/04/18 20:10:31;;;;;;;11.70;3.15;;;;;;;20.49;33.19;102422.31;16115352;19;129792;-45
2023/04/18 20:15:53;;;;;;;7.43;3.03;;;;;;;20.65;32.90;102422.88;16119082;19;130536;-45
2023/04/18 20:21:15;;;;;;;11.23;3.35;;;;;;;20.73;32.68;102426.25;16121144;19;129730;-45
2023/04/18 20:26:37;;;;;;;7.82;3.67;;;;;;;20.75;32.87;102417.66;16111273;19;130861;-45
2023/04/18 20:31:59;;;;;;;13.75;4.20;;;;;;;20.79;32.61;102427.28;16113993;19;131256;-46
2023/04/18 20:37:21;;;;;;;11.38;4.60;;;;;;;20.80;32.40;102428.13;16119125;19;129994;-43
2023/04/18 20:42:43;;;;;;;11.50;5.28;;;;;;;20.77;32.40;102425.78;16120749;19;130109;-45
2023/04/18 20:48:05;;;;;;;10.30;4.40;;;;;;;20.70;32.10;102423.03;16119683;19;134755;-44
2023/04/18 20:53:27;;;;;;;8.73;4.22;;;;;;;20.64;32.51;102435.06;16113762;19;129522;-44
2023/04/18 20:58:49;;;;;;;9.77;3.58;;;;;;;20.54;32.29;102432.75;16117062;19;131500;-43
2023/04/18 21:04:11;;;;;;;6.85;3.88;;;;;;;20.45;32.63;102424.69;16115818;19;130909;-43
2023/04/18 21:09:35;;;;;;;6.20;3.65;;;;;;;20.39;32.55;102441.41;16116877;19;129514;-42
2023/04/18 21:14:57;;;;;;;9.23;3.65;;;;;;;20.29;32.82;102445.50;16117191;19;129583;-43
2023/04/18 21:20:19;;;;;;;3.97;2.92;;;;;;;20.23;32.61;102448.31;16117094;19;129764;-42
2023/04/18 21:25:41;;;;;;;6.45;3.28;;;;;;;20.13;32.65;102444.06;16116039;19;129834;-42
2023/04/18 21:31:03;;;;;;;6.97;3.47;;;;;;;20.08;32.46;102448.56;16114432;19;130603;-46
2023/04/18 21:36:26;;;;;;;5.30;3.08;;;;;;;20.02;32.55;102453.06;16114905;19;133571;-46
2023/04/18 21:41:48;;;;;;;5.10;3.22;;;;;;;19.97;32.83;102450.09;16115592;19;131221;-46
2023/04/18 21:47:10;;;;;;;6.85;3.22;;;;;;;19.89;32.86;102445.63;16113509;19;130960;-44
2023/04/18 21:52:31;;;;;;;3.65;2.60;;;;;;;19.83;32.77;102452.03;16113340;19;130018;-46
2023/04/18 21:57:54;;;;;;;4.30;2.70;;;;;;;19.77;32.74;102452.91;16112764;19;130409;-44
2023/04/18 22:03:15;;;;;;;3.35;2.47;;;;;;;19.72;32.85;102448.00;16111355;19;131250;-45
2023/04/18 22:08:37;;;;;;;3.38;2.60;;;;;;;19.65;32.83;102452.72;16112041;19;129773;-43
2023/04/18 22:14:00;;;;;;;5.57;2.83;;;;;;;19.61;32.89;102460.63;16112728;19;132281;-45
2023/04/18 22:19:23;;;;;;;4.53;2.30;;;;;;;19.57;32.80;102451.00;16110049;19;129207;-42
2023/04/18 22:24:45;;;;;;;4.13;2.95;;;;;;;19.52;33.06;102454.44;16110397;19;130873;-45
2023/04/18 22:30:08;;;;;;;4.13;2.53;;;;;;;19.49;32.71;102451.25;16111096;19;131020;-42
2023/04/18 22:35:30;;;;;;;2.95;2.15;;;;;;;19.44;32.81;102448.28;16112395;19;129785;-42
2023/04/18 22:40:52;;;;;;;3.53;2.10;;;;;;;19.40;32.78;102450.59;16110770;19;130177;-43
2023/04/18 22:46:14;;;;;;;5.05;2.90;;;;;;;19.36;33.05;102455.72;16111283;19;131839;-42
2023/04/18 22:51:37;;;;;;;2.90;2.40;;;;;;;19.34;33.00;102457.84;16108260;19;131404;-44
2023/04/18 22:56:58;;;;;;;2.95;2.33;;;;;;;19.30;32.98;102467.69;16109468;19;131187;-43
2023/04/18 23:02:20;;;;;;;2.45;2.25;;;;;;;19.27;32.88;102462.56;16108057;19;129593;-42
2023/04/18 23:07:42;;;;;;;3.67;2.25;;;;;;;19.23;32.79;102469.59;16106564;19;129559;-44
2023/04/18 23:13:04;;;;;;;2.42;2.22;;;;;;;19.21;33.16;102468.97;16109679;19;130550;-42
2023/04/18 23:18:29;;;;;;;2.40;1.63;;;;;;;19.19;32.80;102473.84;16107126;19;132251;-43
2023/04/18 23:23:51;;;;;;;4.20;1.80;;;;;;;19.16;33.28;102479.81;16117989;19;130176;-42
2023/04/18 23:29:13;;;;;;;2.50;2.30;;;;;;;19.14;32.87;102473.63;16127060;19;129946;-48
2023/04/18 23:34:35;;;;;;;2.97;1.98;;;;;;;19.13;33.12;102477.47;16123179;19;130258;-44
2023/04/18 23:39:58;;;;;;;1.92;1.83;;;;;;;19.08;33.15;102465.06;16124258;19;128882;-43
2023/04/18 23:45:23;;;;;;;2.10;1.90;;;;;;;19.07;32.91;102468.94;16124286;19;131780;-46
2023/04/18 23:50:46;;;;;;;1.83;1.65;;;;;;;19.05;32.84;102470.19;16120466;19;134314;-46
2023/04/18 23:56:08;;;;;;;4.18;2.33;;;;;;;19.04;33.28;102477.69;16122177;19;129831;-43
